createdAt,value
2023-01-19T00:01:47.894Z,1.60
2023-01-19T00:04:17.394Z,1.60
2023-01-19T00:06:49.023Z,1.60
2023-01-19T00:09:19.417Z,1.60
2023-01-19T00:11:48.405Z,1.50
2023-01-19T00:14:17.579Z,1.60
2023-01-19T00:16:46.369Z,1.60
2023-01-19T00:19:15.275Z,1.50
2023-01-19T00:21:44.456Z,1.40
2023-01-19T00:24:14.153Z,1.40
2023-01-19T00:26:45.065Z,1.40
2023-01-19T00:29:15.771Z,1.40
2023-01-19T00:31:44.970Z,1.30
2023-01-19T00:34:14.048Z,1.30
2023-01-19T00:36:43.597Z,1.40
2023-01-19T00:39:12.425Z,1.40
2023-01-19T00:42:03.740Z,1.40
2023-01-19T00:44:32.913Z,1.40
2023-01-19T00:47:06.303Z,1.40
2023-01-19T00:49:35.541Z,1.40
2023-01-19T00:52:04.514Z,1.30
2023-01-19T00:54:33.555Z,1.30
2023-01-19T00:57:04.641Z,1.30
2023-01-19T00:59:33.605Z,1.30
2023-01-19T01:02:03.683Z,1.30
2023-01-19T01:04:32.825Z,1.40
2023-01-19T01:07:01.805Z,1.50
2023-01-19T01:09:31.012Z,1.50
2023-01-19T01:11:59.982Z,1.50
2023-01-19T01:14:30.418Z,1.40
2023-01-19T01:16:59.125Z,1.40
2023-01-19T01:19:28.050Z,1.40
2023-01-19T01:21:57.002Z,1.40
2023-01-19T01:24:25.704Z,1.50
2023-01-19T01:26:54.792Z,1.60
2023-01-19T01:29:23.884Z,1.60
2023-01-19T01:31:54.585Z,1.70
2023-01-19T01:34:23.262Z,1.80
2023-01-19T01:36:52.199Z,1.90
2023-01-19T01:39:22.433Z,1.90
2023-01-19T01:41:51.361Z,1.90
2023-01-19T01:44:56.149Z,1.90
2023-01-19T01:47:35.513Z,1.90
2023-01-19T01:50:12.758Z,1.90
2023-01-19T01:53:06.301Z,1.90
2023-01-19T01:55:41.508Z,1.90
2023-01-19T01:58:12.104Z,1.90
2023-01-19T02:00:55.252Z,1.90
2023-01-19T02:03:33.065Z,1.90
2023-01-19T02:06:05.677Z,1.90
2023-01-19T02:08:55.978Z,1.90
2023-01-19T02:11:42.373Z,1.80
2023-01-19T02:14:11.548Z,1.80
2023-01-19T02:16:40.493Z,1.80
2023-01-19T02:19:17.761Z,1.80
2023-01-19T02:21:54.432Z,1.80
2023-01-19T02:24:26.149Z,1.70
2023-01-19T02:26:55.903Z,1.70
2023-01-19T02:29:27.464Z,1.70
2023-01-19T02:31:57.576Z,1.60
2023-01-19T02:34:26.727Z,1.60
2023-01-19T02:36:59.504Z,1.50
2023-01-19T02:39:35.027Z,1.50
2023-01-19T02:42:07.909Z,1.50
2023-01-19T02:44:38.748Z,1.50
2023-01-19T02:47:07.975Z,1.40
2023-01-19T02:49:36.787Z,1.40
2023-01-19T02:52:06.217Z,1.40
2023-01-19T02:54:54.998Z,1.40
2023-01-19T02:57:43.879Z,1.40
2023-01-19T03:00:26.130Z,1.40
2023-01-19T03:03:11.587Z,1.40
2023-01-19T03:05:55.286Z,1.40
2023-01-19T03:08:34.417Z,1.40
2023-01-19T03:11:07.378Z,1.40
2023-01-19T03:13:44.247Z,1.50
2023-01-19T03:16:22.519Z,1.50
2023-01-19T03:18:57.084Z,1.60
2023-01-19T03:21:29.445Z,1.60
2023-01-19T03:24:02.401Z,1.70
2023-01-19T03:26:38.924Z,1.70
2023-01-19T03:29:10.188Z,1.80
2023-01-19T03:31:40.861Z,1.80
2023-01-19T03:34:13.444Z,1.80
2023-01-19T03:36:49.650Z,1.90
2023-01-19T03:39:23.551Z,1.90
2023-01-19T03:41:56.500Z,2.00
2023-01-19T03:44:28.299Z,2.00
2023-01-19T03:46:58.941Z,2.10
2023-01-19T03:49:28.584Z,2.20
2023-01-19T03:51:59.189Z,2.20
2023-01-19T03:54:29.474Z,2.30
2023-01-19T03:57:00.153Z,2.30
2023-01-19T03:59:30.781Z,2.30
2023-01-19T04:02:00.212Z,2.30
2023-01-19T04:04:30.595Z,2.30
2023-01-19T04:06:59.754Z,2.20
2023-01-19T04:09:29.028Z,2.00
2023-01-19T04:12:01.966Z,1.70
2023-01-19T04:14:31.504Z,1.50
2023-01-19T04:17:00.795Z,1.40
2023-01-19T04:19:30.158Z,1.40
2023-01-19T04:21:59.154Z,1.40
2023-01-19T04:24:28.767Z,1.40
2023-01-19T04:26:59.536Z,1.30
2023-01-19T04:29:29.147Z,1.20
2023-01-19T04:31:57.952Z,1.20
2023-01-19T04:34:27.025Z,1.10
2023-01-19T04:36:56.348Z,1.10
2023-01-19T04:39:25.027Z,1.10
2023-01-19T04:41:53.660Z,1.10
2023-01-19T04:44:24.582Z,1.10
2023-01-19T04:46:53.194Z,1.10
2023-01-19T04:49:22.902Z,1.10
2023-01-19T04:51:54.079Z,1.10
2023-01-19T04:54:23.662Z,1.00
2023-01-19T04:56:52.467Z,1.00
2023-01-19T04:59:21.720Z,1.00
2023-01-19T05:01:52.100Z,1.00
2023-01-19T05:04:22.758Z,1.10
2023-01-19T05:06:51.978Z,1.10
2023-01-19T05:09:20.677Z,1.10
2023-01-19T05:11:49.810Z,1.10
2023-01-19T05:14:18.998Z,1.10
2023-01-19T05:16:48.055Z,1.10
2023-01-19T05:19:18.667Z,1.10
2023-01-19T05:21:47.439Z,1.10
2023-01-19T05:24:16.776Z,1.10
2023-01-19T05:26:45.545Z,1.00
2023-01-19T05:29:14.568Z,0.90
2023-01-19T05:31:43.640Z,1.00
2023-01-19T05:34:14.974Z,0.90
2023-01-19T05:36:45.206Z,0.90
2023-01-19T05:39:14.760Z,0.90
2023-01-19T05:41:44.932Z,0.90
2023-01-19T05:44:14.035Z,0.90
2023-01-19T05:46:43.060Z,0.90
2023-01-19T05:49:13.567Z,0.90
2023-01-19T05:51:45.734Z,0.90
2023-01-19T05:54:17.650Z,0.90
2023-01-19T05:56:46.664Z,0.90
2023-01-19T05:59:15.451Z,1.00
2023-01-19T06:01:44.303Z,0.90
2023-01-19T06:04:12.987Z,1.00
2023-01-19T06:06:41.649Z,1.00
2023-01-19T06:09:10.894Z,1.00
2023-01-19T06:11:41.550Z,1.00
2023-01-19T06:14:11.537Z,1.00
2023-01-19T06:16:40.391Z,1.00
2023-01-19T06:19:09.346Z,1.00
2023-01-19T06:21:37.981Z,1.00
2023-01-19T06:24:07.450Z,1.00
2023-01-19T06:26:35.950Z,1.00
2023-01-19T06:29:05.959Z,1.00
2023-01-19T06:31:34.493Z,1.00
2023-01-19T06:34:03.630Z,1.00
2023-01-19T06:36:32.584Z,1.00
2023-01-19T06:39:03.749Z,1.00
2023-01-19T06:41:32.466Z,1.00
2023-01-19T06:44:01.278Z,1.00
2023-01-19T06:46:31.328Z,1.00
2023-01-19T06:48:59.879Z,1.10
2023-01-19T06:51:28.525Z,1.10
2023-01-19T06:53:57.515Z,1.10
2023-01-19T06:56:26.096Z,1.20
2023-01-19T06:58:55.403Z,1.20
2023-01-19T07:01:23.874Z,1.20
2023-01-19T07:03:54.729Z,1.20
2023-01-19T07:06:23.477Z,1.20
2023-01-19T07:08:52.125Z,1.20
2023-01-19T07:11:24.948Z,1.20
2023-01-19T07:13:59.343Z,1.30
2023-01-19T07:16:28.004Z,1.30
2023-01-19T07:18:58.593Z,1.30
2023-01-19T07:21:29.177Z,1.30
2023-01-19T07:23:58.112Z,1.30
2023-01-19T07:26:28.127Z,1.30
2023-01-19T07:28:56.662Z,1.30
2023-01-19T07:31:25.962Z,1.30
2023-01-19T07:33:54.882Z,1.30
2023-01-19T07:36:25.317Z,1.30
2023-01-19T07:38:53.766Z,1.30
2023-01-19T07:41:22.458Z,1.30
2023-01-19T07:43:53.145Z,1.40
2023-01-19T07:46:22.139Z,1.40
2023-01-19T07:48:50.858Z,1.40
2023-01-19T07:51:19.616Z,1.40
2023-01-19T07:53:51.935Z,1.40
2023-01-19T07:56:20.806Z,1.40
2023-01-19T07:58:50.534Z,1.40
2023-01-19T08:01:19.668Z,1.40
2023-01-19T08:03:50.106Z,1.50
2023-01-19T08:06:22.996Z,1.50
2023-01-19T08:08:53.407Z,1.50
2023-01-19T08:11:22.454Z,1.50
2023-01-19T08:13:51.304Z,1.50
2023-01-19T08:16:20.384Z,1.60
2023-01-19T08:18:48.948Z,1.60
2023-01-19T08:21:17.834Z,1.60
2023-01-19T08:23:46.717Z,1.60
2023-01-19T08:26:29.372Z,1.60
2023-01-19T08:29:03.832Z,1.60
2023-01-19T08:31:32.464Z,1.60
2023-01-19T08:34:01.289Z,1.70
2023-01-19T08:36:30.585Z,1.70
2023-01-19T08:38:59.327Z,1.70
2023-01-19T08:41:29.810Z,1.70
2023-01-19T08:43:58.513Z,1.80
2023-01-19T08:46:27.545Z,1.80
2023-01-19T08:48:56.420Z,1.80
2023-01-19T08:51:25.167Z,1.90
2023-01-19T08:53:54.080Z,1.90
2023-01-19T08:56:23.281Z,1.90
2023-01-19T08:59:08.189Z,1.90
2023-01-19T09:01:38.507Z,2.00
2023-01-19T09:04:08.059Z,1.90
2023-01-19T09:06:36.866Z,2.00
2023-01-19T09:09:05.984Z,2.00
2023-01-19T09:11:35.452Z,2.00
2023-01-19T09:14:06.474Z,2.00
2023-01-19T09:16:35.560Z,2.10
2023-01-19T09:19:04.693Z,2.00
2023-01-19T09:21:33.492Z,1.80
2023-01-19T09:24:02.062Z,1.70
2023-01-19T09:26:33.144Z,1.70
2023-01-19T09:29:01.903Z,1.80
2023-01-19T09:31:32.615Z,1.80
2023-01-19T09:34:01.603Z,1.90
2023-01-19T09:36:30.312Z,2.00
2023-01-19T09:38:59.066Z,2.00
2023-01-19T09:41:27.965Z,2.10
2023-01-19T09:43:59.176Z,2.10
2023-01-19T09:46:35.375Z,2.10
2023-01-19T09:49:12.416Z,2.10
2023-01-19T09:51:46.372Z,2.10
2023-01-19T09:54:18.013Z,2.10
2023-01-19T09:56:51.322Z,2.20
2023-01-19T09:59:25.310Z,2.20
2023-01-19T10:02:15.629Z,2.20
2023-01-19T10:04:45.008Z,2.20
2023-01-19T10:07:31.726Z,2.20
2023-01-19T10:10:21.028Z,2.10
2023-01-19T10:13:13.843Z,2.10
2023-01-19T10:15:54.223Z,2.10
2023-01-19T10:18:31.289Z,2.20
2023-01-19T10:21:05.961Z,2.30
2023-01-19T10:23:42.880Z,2.30
2023-01-19T10:26:17.120Z,2.30
2023-01-19T10:28:48.324Z,2.30
2023-01-19T10:31:20.467Z,2.50
2023-01-19T10:33:51.401Z,2.50
2023-01-19T10:36:21.875Z,2.60
2023-01-19T10:38:51.412Z,2.70
2023-01-19T10:41:24.390Z,2.70
2023-01-19T10:44:01.487Z,2.70
2023-01-19T10:46:38.656Z,2.90
2023-01-19T10:49:21.652Z,3.00
2023-01-19T10:51:51.106Z,3.10
2023-01-19T10:54:21.341Z,3.20
2023-01-19T10:56:55.551Z,3.30
2023-01-19T10:59:34.183Z,3.20
2023-01-19T11:02:19.280Z,3.20
2023-01-19T11:04:53.138Z,3.10
2023-01-19T11:07:24.475Z,2.90
2023-01-19T11:10:14.589Z,2.80
2023-01-19T11:12:44.432Z,2.90
2023-01-19T11:15:23.171Z,3.00
2023-01-19T11:17:53.085Z,3.00
2023-01-19T11:20:27.387Z,3.00
2023-01-19T11:23:07.819Z,3.00
2023-01-19T11:25:37.779Z,3.00
2023-01-19T11:28:08.657Z,3.10
2023-01-19T11:30:37.657Z,3.20
2023-01-19T11:33:07.355Z,3.20
2023-01-19T11:35:43.240Z,3.20
2023-01-19T11:38:20.359Z,3.20
2023-01-19T11:40:55.050Z,3.20
2023-01-19T11:43:26.858Z,3.20
2023-01-19T11:45:57.625Z,3.30
2023-01-19T11:48:33.993Z,3.30
2023-01-19T11:51:08.943Z,3.30
2023-01-19T11:53:38.058Z,3.30
2023-01-19T11:56:11.607Z,3.40
2023-01-19T11:58:42.636Z,3.40
2023-01-19T12:01:21.452Z,3.40
2023-01-19T12:03:57.517Z,3.30
2023-01-19T12:06:34.533Z,3.40
2023-01-19T12:09:07.004Z,3.40
2023-01-19T12:11:42.050Z,3.40
2023-01-19T12:14:19.031Z,3.40
2023-01-19T12:16:49.945Z,3.30
2023-01-19T12:19:24.032Z,3.20
2023-01-19T12:21:57.478Z,3.10
2023-01-19T12:24:34.344Z,3.10
2023-01-19T12:27:09.961Z,3.20
2023-01-19T12:29:39.004Z,3.30
2023-01-19T12:32:19.871Z,3.50
2023-01-19T12:34:49.696Z,3.80
2023-01-19T12:37:40.685Z,3.90
2023-01-19T12:40:28.084Z,3.90
2023-01-19T12:43:01.672Z,4.00
2023-01-19T12:45:36.237Z,4.20
2023-01-19T12:48:09.011Z,4.40
2023-01-19T12:50:40.806Z,4.50
2023-01-19T12:53:23.074Z,4.40
2023-01-19T12:56:01.316Z,4.20
2023-01-19T12:58:30.499Z,4.20
2023-01-19T13:01:16.795Z,4.40
2023-01-19T13:03:59.680Z,4.70
2023-01-19T13:07:05.988Z,4.80
2023-01-19T13:09:38.742Z,4.70
2023-01-19T13:12:22.887Z,4.70
2023-01-19T13:14:52.747Z,5.00
2023-01-19T13:17:28.595Z,4.90
2023-01-19T13:20:27.562Z,4.70
2023-01-19T13:23:19.605Z,4.80
2023-01-19T13:26:00.603Z,4.80
2023-01-19T13:28:38.073Z,4.70
2023-01-19T13:31:09.925Z,4.80
2023-01-19T13:33:50.052Z,5.20
2023-01-19T13:36:30.286Z,5.10
2023-01-19T13:39:01.549Z,4.80
2023-01-19T13:41:38.559Z,4.80
2023-01-19T13:44:14.791Z,4.90
2023-01-19T13:46:44.527Z,4.60
2023-01-19T13:49:20.232Z,4.50
2023-01-19T13:52:05.851Z,4.40
2023-01-19T13:54:34.981Z,4.40
2023-01-19T13:57:05.819Z,4.40
2023-01-19T13:59:34.889Z,4.30
2023-01-19T14:02:12.488Z,4.20
2023-01-19T14:05:41.101Z,4.10
2023-01-19T14:32:49.663Z,4.30
2023-01-19T14:42:34.312Z,4.20
2023-01-19T14:50:17.354Z,4.20
2023-01-19T14:53:00.609Z,4.20
2023-01-19T15:56:02.524Z,2.80
2023-01-19T16:02:07.572Z,2.70
2023-01-19T16:04:39.511Z,2.80
2023-01-19T16:28:05.504Z,2.70
2023-01-19T17:06:22.039Z,1.90
2023-01-19T17:09:03.857Z,1.90
2023-01-19T17:19:07.902Z,1.70
2023-01-19T20:27:24.073Z,-0.20
2023-01-19T20:29:58.298Z,-0.30
2023-01-19T20:35:40.027Z,-0.40
2023-01-19T20:38:09.774Z,-0.50
2023-01-19T20:40:40.001Z,-0.40
2023-01-19T20:43:13.017Z,-0.20
2023-01-19T20:45:42.768Z,-0.10
2023-01-19T20:48:12.296Z,-0.10
2023-01-19T20:50:41.557Z,-0.10
2023-01-19T20:53:11.045Z,-0.10
2023-01-19T20:55:40.544Z,-0.10
2023-01-19T20:58:13.928Z,-0.20
2023-01-19T21:00:43.905Z,-0.40
2023-01-19T21:03:13.704Z,-0.40
2023-01-19T21:05:43.261Z,-0.50
2023-01-19T21:08:13.857Z,-0.50
2023-01-19T21:10:43.584Z,-0.60
2023-01-19T21:13:16.102Z,-0.80
2023-01-19T21:15:52.199Z,-0.90
2023-01-19T21:18:27.999Z,-1.10
2023-01-19T21:21:04.083Z,-1.30
2023-01-19T21:23:51.587Z,-1.40
2023-01-19T21:26:36.122Z,-1.20
2023-01-19T21:29:13.502Z,-1.00
2023-01-19T21:31:57.910Z,-0.90
2023-01-19T21:34:38.096Z,-0.80
2023-01-19T21:37:26.120Z,-0.70
2023-01-19T21:39:55.699Z,-0.60
2023-01-19T21:42:24.467Z,-0.70
2023-01-19T21:44:54.697Z,-0.60
2023-01-19T21:47:23.947Z,-0.70
2023-01-19T21:49:52.905Z,-0.70
2023-01-19T21:52:21.549Z,-0.80
2023-01-19T21:54:50.214Z,-0.80
2023-01-19T21:57:19.909Z,-0.90
2023-01-19T21:59:48.694Z,-1.00
2023-01-19T22:02:33.252Z,-1.00
2023-01-19T22:05:07.892Z,-1.00
2023-01-19T22:07:37.222Z,-1.00
2023-01-19T22:10:07.793Z,-0.90
2023-01-19T22:12:36.639Z,-0.70
2023-01-19T22:15:05.950Z,-0.70
2023-01-19T22:17:36.629Z,-0.60
2023-01-19T22:20:05.943Z,-0.60
2023-01-19T22:22:35.293Z,-0.60
2023-01-19T22:25:05.907Z,-0.60
2023-01-19T22:27:34.922Z,-0.60
2023-01-19T22:30:03.987Z,-0.60
2023-01-19T22:32:33.316Z,-0.70
2023-01-19T22:35:03.829Z,-0.80
2023-01-19T22:37:36.726Z,-0.90
2023-01-19T22:40:06.470Z,-1.00
2023-01-19T22:42:35.348Z,-1.00
2023-01-19T22:45:04.490Z,-0.90
2023-01-19T22:47:33.261Z,-0.90
2023-01-19T22:50:03.667Z,-0.80
2023-01-19T22:52:32.186Z,-0.80
2023-01-19T22:55:00.677Z,-0.80
2023-01-19T22:57:29.233Z,-0.70
2023-01-19T22:59:57.889Z,-0.60
2023-01-19T23:02:27.002Z,-0.50
2023-01-19T23:04:55.972Z,-0.50
2023-01-19T23:07:26.303Z,-0.60
2023-01-19T23:09:55.063Z,-0.60
2023-01-19T23:12:23.744Z,-0.60
2023-01-19T23:14:52.386Z,-0.50
2023-01-19T23:17:21.576Z,-0.30
2023-01-19T23:19:50.944Z,-0.30
2023-01-19T23:22:20.412Z,-0.10
2023-01-19T23:24:50.852Z,0.00
2023-01-19T23:27:19.356Z,-0.10
2023-01-19T23:29:48.935Z,0.10
2023-01-19T23:32:18.056Z,0.30
2023-01-19T23:34:49.077Z,0.30
2023-01-19T23:37:18.047Z,0.30
2023-01-19T23:39:47.416Z,0.50
2023-01-19T23:42:17.630Z,0.60
2023-01-19T23:44:46.282Z,0.70
2023-01-19T23:47:15.633Z,0.70
2023-01-19T23:49:44.353Z,0.70
2023-01-19T23:52:13.050Z,0.80
2023-01-19T23:54:42.696Z,0.80
2023-01-19T23:57:11.952Z,0.90
2023-01-19T23:59:42.727Z,0.90
